aviador You're here:

KLUX Decoded Metar

LAURENS CTY in SC, USA
Report Time2017-11-20 20:55:00
UTC Time2017-11-20 21:13:02
Flight Rules vfr VFR
Wind200° at 03 kt
W.Decomp.*RWY 26: 1.7 kt HW 2.5 kt LCW
W.Rank200° ranks 5
Current wind is below 200° avg. (5.3)
Visibility9999 m
Phenomena:N/A
Clouds:N/A
Expected CloudBase > 6,400 ft AGL from Temp-Dew spread
CeilingNone
Temp14°C (ISA 0)
Dew Point-2°C (33% RH)
AAT10.7°C
QNH1023 hPa
Density Alt486 ft
Elevation699 ft
Report Wrong Elevation
Raw Report
METAR KLUX 202055Z AUTO 20003KT 10SM CLR 14/M02 A3020 RMK AO2=

Extra information for KLUX:More info

Metar Taf Metar & Taf Last 4 Metars F.Rules Stats Wind Profile Meteogram Temp Stats Airport Information Weather charts Add Link Nearby VenuesMetar ALERT Operation Metar Decoded Social comments

AIRNAV info for KLUX